Time;durP1;ratioP1;P1;durP2;ratioP2;P2;SDS_P1;SDS_P2;PMS_P1;PMS_P2;Temp;Humidity;BMP_temperature;BMP_pressure;BME280_temperature;BME280_humidity;BME280_pressure;Samples;Min_cycle;Max_cycle;Signal;HPM_P1;HPM_P2
2021/05/21 00:01:41;;;;;;;1.40;1.10;;;;;;;8.99;69.69;96442.09;3548701;40;20486;-72
2021/05/21 00:04:08;;;;;;;2.63;1.33;;;;;;;8.95;70.42;96440.63;3546498;40;20679;-72
2021/05/21 00:06:35;;;;;;;1.60;1.10;;;;;;;9.02;69.92;96434.09;3549530;40;20469;-72
2021/05/21 00:09:04;;;;;;;2.07;1.20;;;;;;;8.94;69.89;96433.72;3545888;40;20459;-74
2021/05/21 00:11:31;;;;;;;3.70;1.57;;;;;;;8.91;70.22;96432.97;3547531;40;20949;-73
2021/05/21 00:13:59;;;;;;;1.97;1.30;;;;;;;8.97;69.86;96423.91;3547204;40;20535;-72
2021/05/21 00:16:26;;;;;;;3.20;1.50;;;;;;;8.93;69.94;96416.38;3540910;40;20487;-72
2021/05/21 00:18:55;;;;;;;8.47;1.93;;;;;;;8.95;70.00;96419.72;3544172;40;20795;-72
2021/05/21 00:21:23;;;;;;;2.70;1.10;;;;;;;8.98;69.96;96414.31;3544314;40;20561;-72
2021/05/21 00:23:51;;;;;;;1.70;1.20;;;;;;;8.95;69.89;96412.72;3548702;40;20475;-72
2021/05/21 00:26:18;;;;;;;3.43;1.37;;;;;;;8.83;70.35;96406.53;3545778;40;20495;-72
2021/05/21 00:28:46;;;;;;;1.97;0.83;;;;;;;8.88;70.02;96401.84;3546592;40;20910;-72
2021/05/21 00:31:13;;;;;;;1.90;1.10;;;;;;;8.94;70.14;96399.75;3546984;40;21124;-72
2021/05/21 00:33:41;;;;;;;2.13;1.00;;;;;;;8.94;69.44;96392.78;3550571;40;20929;-72
2021/05/21 00:36:09;;;;;;;2.50;1.07;;;;;;;8.97;68.75;96387.34;3541739;40;20791;-72
2021/05/21 00:38:37;;;;;;;1.40;1.13;;;;;;;9.00;68.97;96386.31;3551079;40;20909;-72
2021/05/21 00:41:04;;;;;;;1.50;0.90;;;;;;;9.10;68.38;96375.16;3540972;40;20468;-72
2021/05/21 00:43:32;;;;;;;1.93;1.03;;;;;;;9.04;68.43;96356.44;3552662;40;20542;-73
2021/05/21 00:46:00;;;;;;;4.47;1.03;;;;;;;9.01;68.71;96356.66;3547694;40;20934;-74
2021/05/21 00:48:28;;;;;;;4.03;1.17;;;;;;;8.98;68.96;96362.09;3550196;40;20460;-73
2021/05/21 00:50:55;;;;;;;1.40;0.87;;;;;;;9.07;68.28;96358.84;3547628;40;20462;-72
2021/05/21 00:53:28;;;;;;;16.13;1.93;;;;;;;9.07;67.91;96349.22;3549243;40;20447;-73
2021/05/21 00:55:57;;;;;;;3.23;1.20;;;;;;;9.16;67.62;96329.50;3545926;40;20459;-72
2021/05/21 00:58:25;;;;;;;8.53;1.00;;;;;;;9.08;67.78;96316.94;3544375;40;20460;-71
2021/05/21 01:00:53;;;;;;;4.97;1.37;;;;;;;9.08;68.12;96331.78;3538469;40;20804;-72
2021/05/21 01:03:21;;;;;;;4.60;1.10;;;;;;;9.11;67.82;96342.03;3547648;40;20681;-73
2021/05/21 01:05:51;;;;;;;1.50;0.70;;;;;;;9.05;68.12;96342.44;3540998;40;20964;-73
2021/05/21 01:08:19;;;;;;;1.20;0.90;;;;;;;9.07;67.79;96328.31;3547672;40;20713;-73
2021/05/21 01:11:05;;;;;;;8.13;2.07;;;;;;;9.14;67.62;96351.47;3550208;40;20551;-73
2021/05/21 01:13:33;;;;;;;5.70;1.30;;;;;;;9.16;67.44;96344.34;3542173;40;21116;-75
2021/05/21 01:16:01;;;;;;;3.10;1.03;;;;;;;9.15;67.73;96340.88;3545780;40;20457;-72
2021/05/21 01:18:29;;;;;;;1.77;0.90;;;;;;;8.95;68.62;96338.78;3551776;40;20722;-73
2021/05/21 01:20:57;;;;;;;3.37;1.10;;;;;;;8.99;68.39;96338.44;3547547;40;20471;-73
2021/05/21 01:23:25;;;;;;;2.10;1.03;;;;;;;8.83;69.57;96333.41;3534527;40;20448;-73
2021/05/21 01:25:53;;;;;;;6.10;1.47;;;;;;;8.84;69.15;96329.03;3549199;40;20957;-72
2021/05/21 01:28:21;;;;;;;1.47;1.00;;;;;;;8.84;69.56;96335.09;3545074;40;20500;-72
2021/05/21 01:30:50;;;;;;;1.10;0.80;;;;;;;8.79;69.71;96329.34;3547466;40;20722;-72
2021/05/21 01:33:19;;;;;;;7.10;1.03;;;;;;;8.73;70.00;96331.53;3545503;40;20447;-73
2021/05/21 01:35:47;;;;;;;2.10;0.93;;;;;;;8.59;70.29;96309.75;3550247;40;20842;-70
2021/05/21 01:38:15;;;;;;;4.40;1.13;;;;;;;8.65;70.19;96322.41;3547536;40;20460;-73
2021/05/21 01:40:44;;;;;;;2.40;1.00;;;;;;;8.77;69.63;96320.75;3545160;40;20451;-73
2021/05/21 01:43:12;;;;;;;3.23;0.93;;;;;;;8.77;69.55;96314.72;3547470;40;20451;-73
2021/05/21 01:45:40;;;;;;;1.70;0.90;;;;;;;8.76;69.77;96313.88;3550174;40;20465;-73
2021/05/21 01:48:10;;;;;;;2.40;0.90;;;;;;;8.76;69.61;96316.50;3548694;40;20472;-73
2021/05/21 01:50:37;;;;;;;1.97;1.07;;;;;;;8.72;69.79;96309.78;3546978;40;20465;-73
2021/05/21 01:53:05;;;;;;;5.27;1.00;;;;;;;8.76;69.41;96313.88;3547078;40;20437;-72
2021/05/21 01:55:34;;;;;;;1.30;0.90;;;;;;;8.68;69.13;96300.47;3548783;40;20449;-72
2021/05/21 01:58:02;;;;;;;2.57;1.17;;;;;;;8.79;69.12;96303.22;3547209;40;20483;-72
2021/05/21 02:00:30;;;;;;;4.00;1.10;;;;;;;8.77;69.21;96301.66;3547455;40;20539;-73
2021/05/21 02:02:57;;;;;;;1.40;1.00;;;;;;;8.82;68.76;96291.72;3543390;40;20448;-72
2021/05/21 02:05:25;;;;;;;4.93;1.17;;;;;;;8.69;69.27;96268.22;3544318;40;20457;-73
2021/05/21 02:07:52;;;;;;;3.43;1.00;;;;;;;8.85;68.52;96284.53;3548682;40;20453;-72
2021/05/21 02:10:20;;;;;;;1.03;0.93;;;;;;;8.84;68.83;96282.03;3542660;40;20432;-72
2021/05/21 02:12:49;;;;;;;3.67;1.00;;;;;;;8.89;68.34;96277.34;3544258;40;20756;-73
2021/05/21 02:15:17;;;;;;;2.57;1.20;;;;;;;8.71;69.04;96277.63;3549923;40;20453;-72
2021/05/21 02:17:44;;;;;;;2.63;1.30;;;;;;;8.75;68.92;96270.44;3552301;40;20479;-76
2021/05/21 02:20:13;;;;;;;2.07;1.17;;;;;;;8.71;69.30;96263.75;3550100;40;20861;-74
2021/05/21 02:22:41;;;;;;;2.80;1.07;;;;;;;8.71;69.27;96261.13;3540424;40;20452;-74
2021/05/21 02:25:10;;;;;;;3.00;1.23;;;;;;;8.64;68.96;96252.03;3547761;40;21089;-73
2021/05/21 02:27:38;;;;;;;1.10;0.77;;;;;;;8.68;69.35;96259.56;3544084;40;20791;-73
2021/05/21 02:30:10;;;;;;;1.67;1.03;;;;;;;8.65;69.60;96253.72;3544418;40;20444;-73
2021/05/21 02:32:38;;;;;;;1.23;0.90;;;;;;;8.58;69.99;96240.22;3542511;40;20476;-72
2021/05/21 02:35:08;;;;;;;3.47;1.23;;;;;;;8.47;70.00;96235.72;3544688;40;20847;-72
2021/05/21 02:37:35;;;;;;;2.33;0.90;;;;;;;8.59;69.89;96243.69;3551185;40;20463;-74
2021/05/21 02:40:05;;;;;;;2.70;0.83;;;;;;;8.57;69.74;96237.72;3548072;40;20452;-73
2021/05/21 02:42:32;;;;;;;1.00;0.80;;;;;;;8.59;69.38;96226.22;3545073;40;20748;-72
2021/05/21 02:45:00;;;;;;;2.60;0.90;;;;;;;8.65;69.03;96231.03;3548548;40;20436;-72
2021/05/21 02:47:30;;;;;;;1.63;1.03;;;;;;;8.61;69.43;96229.56;3546648;40;21103;-72
2021/05/21 02:49:58;;;;;;;2.70;1.00;;;;;;;8.67;69.24;96234.38;3541456;40;20452;-71
2021/05/21 02:52:26;;;;;;;7.33;1.33;;;;;;;8.75;68.66;96231.25;3544191;40;20565;-73
2021/05/21 02:54:54;;;;;;;4.73;0.83;;;;;;;8.72;69.13;96226.22;3548205;40;20463;-72
2021/05/21 02:57:23;;;;;;;1.13;0.80;;;;;;;8.75;68.80;96218.22;3541237;40;21124;-72
2021/05/21 02:59:53;;;;;;;1.67;1.37;;;;;;;8.78;68.10;96225.84;3545203;40;20706;-72
2021/05/21 03:02:21;;;;;;;1.90;1.47;;;;;;;8.75;68.57;96222.59;3545175;40;20767;-72
2021/05/21 03:04:50;;;;;;;0.97;0.80;;;;;;;8.69;68.87;96210.78;3546527;40;20643;-72
2021/05/21 03:07:18;;;;;;;1.10;0.77;;;;;;;8.71;68.82;96204.53;3540085;40;20910;-73
2021/05/21 03:09:45;;;;;;;1.57;1.10;;;;;;;8.70;68.98;96207.22;3533177;40;20771;-73
2021/05/21 03:12:13;;;;;;;1.37;1.10;;;;;;;8.65;69.21;96193.66;3536533;40;20777;-73
2021/05/21 03:14:41;;;;;;;2.70;1.10;;;;;;;8.72;68.60;96200.13;3545042;40;20470;-73
2021/05/21 03:17:08;;;;;;;1.83;0.80;;;;;;;8.73;68.42;96199.19;3543582;40;20460;-72
2021/05/21 03:19:35;;;;;;;2.33;0.97;;;;;;;8.63;68.54;96182.50;3546972;40;20900;-73
2021/05/21 03:22:04;;;;;;;1.50;0.80;;;;;;;8.67;68.81;96181.34;3549846;40;20872;-75
2021/05/21 03:24:31;;;;;;;0.90;0.70;;;;;;;8.67;68.85;96187.41;3538298;40;20839;-72
2021/05/21 03:26:59;;;;;;;1.33;0.87;;;;;;;8.58;69.20;96184.56;3548997;40;20502;-72
2021/05/21 03:29:26;;;;;;;1.63;0.80;;;;;;;8.49;69.46;96181.66;3534835;40;20886;-72
2021/05/21 03:31:54;;;;;;;1.30;0.80;;;;;;;8.44;69.77;96185.50;3544491;40;20779;-73
2021/05/21 03:34:21;;;;;;;2.87;0.93;;;;;;;8.48;69.72;96171.31;3539138;40;20484;-73
2021/05/21 03:36:48;;;;;;;2.20;1.10;;;;;;;8.45;69.85;96171.53;3546865;40;20475;-72
2021/05/21 03:39:17;;;;;;;3.17;0.80;;;;;;;8.41;69.76;96176.09;3548841;40;20428;-73
2021/05/21 03:41:44;;;;;;;1.63;0.90;;;;;;;8.44;69.49;96188.09;3543216;40;20499;-72
2021/05/21 03:44:12;;;;;;;1.70;0.80;;;;;;;8.52;68.89;96193.66;3547802;40;20722;-72
2021/05/21 03:46:39;;;;;;;3.40;0.87;;;;;;;8.41;69.01;96162.16;3547728;40;20456;-72
2021/05/21 03:49:07;;;;;;;2.63;0.97;;;;;;;8.62;68.32;96183.41;3545747;40;20743;-73
2021/05/21 03:51:34;;;;;;;1.30;0.80;;;;;;;8.58;68.26;96188.00;3548548;40;20460;-72
2021/05/21 03:54:02;;;;;;;1.50;0.80;;;;;;;8.57;67.98;96162.88;3537759;40;20677;-72
2021/05/21 03:56:31;;;;;;;4.87;1.13;;;;;;;8.62;68.60;96173.81;3545571;40;20761;-72
2021/05/21 03:58:58;;;;;;;3.27;0.73;;;;;;;8.54;67.89;96159.63;3546551;40;21141;-72
2021/05/21 04:01:26;;;;;;;1.13;0.70;;;;;;;8.61;68.25;96171.31;3546675;40;20467;-71
2021/05/21 04:03:55;;;;;;;6.90;0.90;;;;;;;8.62;68.17;96162.53;3537680;40;20469;-72
2021/05/21 04:06:22;;;;;;;2.30;1.60;;;;;;;8.65;67.78;96157.94;3547904;40;20977;-71
2021/05/21 04:08:53;;;;;;;1.10;0.70;;;;;;;8.62;68.31;96152.09;3544303;40;20464;-71
2021/05/21 04:11:20;;;;;;;3.73;1.10;;;;;;;8.56;67.79;96150.72;3542521;40;20448;-72
2021/05/21 04:13:49;;;;;;;5.90;0.90;;;;;;;8.55;67.73;96132.59;3554479;40;20445;-72
2021/05/21 04:16:17;;;;;;;1.33;0.97;;;;;;;8.54;68.01;96147.41;3546610;40;20451;-73
2021/05/21 04:18:44;;;;;;;4.40;1.00;;;;;;;8.50;68.10;96144.16;3545366;40;20784;-72
2021/05/21 04:21:11;;;;;;;2.17;1.03;;;;;;;8.47;68.29;96149.59;3545972;40;21128;-72
2021/05/21 04:23:39;;;;;;;4.13;0.93;;;;;;;8.38;69.03;96136.31;3544575;40;20538;-75
2021/05/21 04:26:07;;;;;;;1.60;0.87;;;;;;;8.41;68.98;96146.50;3536378;40;20611;-74
2021/05/21 04:28:34;;;;;;;1.40;0.90;;;;;;;8.35;68.89;96139.97;3552573;40;20443;-72
2021/05/21 04:31:03;;;;;;;3.03;1.60;;;;;;;8.40;68.62;96145.69;3548059;40;20715;-74
2021/05/21 04:33:30;;;;;;;1.97;1.20;;;;;;;8.38;68.57;96133.69;3551377;40;20485;-72
2021/05/21 04:35:57;;;;;;;1.27;0.90;;;;;;;8.47;68.29;96143.56;3547728;40;20712;-73
2021/05/21 04:38:25;;;;;;;2.70;1.00;;;;;;;8.47;68.56;96138.31;3545874;40;20855;-73
2021/05/21 04:40:52;;;;;;;1.20;1.00;;;;;;;8.51;68.30;96140.63;3544228;40;20767;-73
2021/05/21 04:43:24;;;;;;;3.20;0.77;;;;;;;8.57;68.18;96131.53;3544126;40;20770;-73
2021/05/21 04:45:51;;;;;;;5.30;1.07;;;;;;;8.38;68.69;96118.88;3545927;40;20817;-73
2021/05/21 04:48:20;;;;;;;2.20;0.97;;;;;;;8.52;68.33;96124.00;3548271;40;20835;-72
2021/05/21 04:50:48;;;;;;;1.90;0.73;;;;;;;8.58;68.20;96127.97;3551085;40;20456;-72
2021/05/21 04:53:15;;;;;;;1.10;0.70;;;;;;;8.65;68.09;96112.75;3541234;40;20535;-73
2021/05/21 04:55:43;;;;;;;1.30;0.73;;;;;;;8.59;68.35;96115.78;3536489;40;20490;-73
2021/05/21 04:58:10;;;;;;;2.60;0.90;;;;;;;8.65;68.33;96110.97;3543252;40;20435;-73
2021/05/21 05:00:39;;;;;;;2.03;0.90;;;;;;;8.70;67.86;96102.81;3528633;40;20546;-73
2021/05/21 05:03:07;;;;;;;2.10;0.93;;;;;;;8.77;67.65;96109.28;3546338;40;20460;-73
2021/05/21 05:05:37;;;;;;;2.33;1.20;;;;;;;8.86;67.63;96108.66;3549299;40;20916;-74
2021/05/21 05:08:04;;;;;;;1.30;1.00;;;;;;;8.83;67.75;96108.84;3549552;40;20518;-73
2021/05/21 05:10:33;;;;;;;3.07;0.77;;;;;;;8.86;67.71;96108.66;3547964;40;20513;-74
2021/05/21 05:13:04;;;;;;;2.93;0.80;;;;;;;8.98;67.22;96111.34;3547565;40;20737;-73
2021/05/21 05:15:33;;;;;;;1.60;1.00;;;;;;;9.17;67.05;96101.25;3548188;40;20473;-74
2021/05/21 05:18:01;;;;;;;1.83;0.97;;;;;;;9.12;67.07;96095.53;3544891;40;20442;-73
2021/05/21 05:20:29;;;;;;;1.30;1.00;;;;;;;9.18;66.84;96089.03;3547691;40;20512;-73
2021/05/21 05:22:57;;;;;;;3.33;0.70;;;;;;;9.27;66.50;96094.44;3546320;40;20451;-74
2021/05/21 05:25:25;;;;;;;1.73;0.90;;;;;;;9.28;66.59;96095.28;3550837;40;20467;-75
2021/05/21 05:27:54;;;;;;;1.47;0.90;;;;;;;9.38;66.40;96092.84;3546778;40;20470;-75
2021/05/21 05:30:23;;;;;;;1.33;0.83;;;;;;;9.40;66.13;96083.09;3550888;40;20460;-72
2021/05/21 05:32:51;;;;;;;1.70;0.90;;;;;;;9.36;66.46;96090.31;3549159;40;20476;-72
2021/05/21 05:35:18;;;;;;;1.17;0.77;;;;;;;9.55;66.08;96082.00;3548492;40;20827;-73
2021/05/21 05:37:46;;;;;;;2.13;0.80;;;;;;;9.54;65.67;96079.50;3544736;40;20461;-73
2021/05/21 05:40:14;;;;;;;3.43;0.70;;;;;;;9.52;65.55;96084.81;3550073;40;20437;-76
2021/05/21 05:42:42;;;;;;;1.80;0.83;;;;;;;9.59;65.41;96075.59;3552049;40;20538;-75
2021/05/21 05:45:11;;;;;;;1.73;1.10;;;;;;;9.65;65.29;96075.16;3547402;40;20810;-74
2021/05/21 05:47:38;;;;;;;1.70;1.00;;;;;;;9.84;65.65;96081.63;3542650;40;20776;-73
2021/05/21 05:50:06;;;;;;;4.50;0.80;;;;;;;9.61;66.52;96078.09;3544147;40;20483;-73
2021/05/21 05:52:34;;;;;;;1.00;0.80;;;;;;;9.59;66.39;96073.00;3546779;40;20519;-72
2021/05/21 05:55:02;;;;;;;3.43;1.07;;;;;;;9.82;66.27;96062.59;3546299;40;21199;-73
2021/05/21 05:57:30;;;;;;;1.87;0.90;;;;;;;9.79;65.69;96068.91;3547586;40;20468;-75
2021/05/21 05:59:57;;;;;;;2.17;1.10;;;;;;;9.98;65.19;96063.16;3545960;40;20826;-74
2021/05/21 06:02:25;;;;;;;6.53;1.20;;;;;;;9.95;65.46;96050.28;3548824;40;20471;-73
2021/05/21 06:04:53;;;;;;;1.37;0.70;;;;;;;10.04;65.31;96048.78;3548926;40;20848;-73
2021/05/21 06:07:20;;;;;;;2.83;1.10;;;;;;;10.14;64.92;96056.75;3545841;40;20730;-74
2021/05/21 06:09:48;;;;;;;4.30;1.20;;;;;;;10.39;64.12;96051.34;3533970;40;20467;-72
2021/05/21 06:12:18;;;;;;;2.60;1.03;;;;;;;10.35;64.36;96057.78;3548138;40;20479;-72
2021/05/21 06:14:47;;;;;;;2.70;0.90;;;;;;;10.51;63.90;96049.59;3545079;40;20445;-75
2021/05/21 06:17:18;;;;;;;3.40;0.90;;;;;;;10.58;63.27;96034.22;3548932;40;20463;-76
2021/05/21 06:19:47;;;;;;;5.70;1.10;;;;;;;10.64;63.94;96039.84;3550960;40;20870;-74
2021/05/21 06:22:21;;;;;;;9.87;1.57;;;;;;;10.65;63.68;96038.88;3549261;40;20470;-73
2021/05/21 06:24:51;;;;;;;4.07;1.70;;;;;;;10.57;64.22;96033.41;3546818;40;20769;-73
2021/05/21 06:27:23;;;;;;;1.00;0.90;;;;;;;10.45;64.61;96031.72;3547175;40;20482;-73
2021/05/21 06:29:51;;;;;;;1.00;0.77;;;;;;;10.37;65.15;96027.09;3551219;40;20708;-72
2021/05/21 06:32:19;;;;;;;27.33;12.87;;;;;;;10.54;65.11;96032.78;3544463;40;20485;-78
2021/05/21 06:34:46;;;;;;;14.90;8.20;;;;;;;10.57;65.07;96024.72;3548429;40;20442;-74
2021/05/21 06:37:23;;;;;;;2.20;1.13;;;;;;;10.52;65.26;96022.44;3538449;40;21084;-73
2021/05/21 06:40:09;;;;;;;6.70;1.67;;;;;;;10.54;64.46;96017.91;3547999;40;20688;-71
2021/05/21 06:42:36;;;;;;;1.77;0.90;;;;;;;10.89;63.92;96012.53;3546140;40;20487;-73
2021/05/21 06:45:06;;;;;;;2.23;0.90;;;;;;;10.91;64.56;96016.81;3547979;40;20456;-73
2021/05/21 06:47:34;;;;;;;48.27;6.07;;;;;;;10.95;63.74;96002.53;3543069;40;21141;-71
2021/05/21 06:50:02;;;;;;;8.03;1.00;;;;;;;11.08;63.42;96000.59;3549292;40;20828;-73
2021/05/21 06:52:30;;;;;;;3.07;0.87;;;;;;;11.00;62.90;96000.38;3546952;40;20452;-72
2021/05/21 06:54:57;;;;;;;1.60;0.90;;;;;;;11.14;62.45;95994.84;3547536;40;20463;-72
2021/05/21 06:57:25;;;;;;;1.50;0.80;;;;;;;11.25;62.05;96000.06;3545950;40;20529;-76
2021/05/21 06:59:52;;;;;;;3.53;1.00;;;;;;;11.52;60.92;95985.66;3539854;40;20709;-73
2021/05/21 07:02:20;;;;;;;4.63;1.00;;;;;;;11.50;61.73;95992.81;3543718;40;20455;-71
2021/05/21 07:04:50;;;;;;;2.93;0.93;;;;;;;11.59;61.72;95988.63;3548253;40;20444;-73
2021/05/21 07:07:17;;;;;;;1.20;0.90;;;;;;;11.71;60.79;95990.22;3546499;40;20946;-73
2021/05/21 07:09:45;;;;;;;10.43;0.90;;;;;;;11.76;60.72;95995.06;3543251;40;20440;-73
2021/05/21 07:12:12;;;;;;;1.83;1.20;;;;;;;11.73;60.24;95995.34;3542528;40;20468;-73
2021/05/21 07:14:41;;;;;;;2.20;0.77;;;;;;;11.33;60.85;95949.66;3543662;40;20459;-72
2021/05/21 07:17:08;;;;;;;1.33;0.80;;;;;;;11.67;60.43;95989.63;3544752;40;20722;-74
2021/05/21 07:19:36;;;;;;;1.77;0.80;;;;;;;11.64;59.97;95995.16;3549461;40;20451;-73
2021/05/21 07:22:06;;;;;;;1.40;0.90;;;;;;;11.69;60.88;95994.75;3546800;40;20466;-74
2021/05/21 07:24:34;;;;;;;3.30;0.93;;;;;;;11.77;60.61;95988.88;3546139;40;20440;-74
2021/05/21 07:27:02;;;;;;;3.70;0.70;;;;;;;11.81;60.13;95990.28;3546072;40;20491;-73
2021/05/21 07:29:29;;;;;;;5.30;0.90;;;;;;;11.70;60.65;95992.97;3542288;40;20453;-73
2021/05/21 07:31:56;;;;;;;2.07;0.90;;;;;;;11.68;60.43;95996.56;3543455;40;20731;-74
2021/05/21 07:34:24;;;;;;;1.70;0.90;;;;;;;11.55;61.13;95990.66;3546704;40;20836;-72
2021/05/21 07:36:52;;;;;;;15.43;1.30;;;;;;;11.62;61.06;95994.44;3543285;40;21113;-73
2021/05/21 07:39:20;;;;;;;1.20;0.70;;;;;;;11.54;61.54;95988.97;3534025;40;20468;-73
2021/05/21 07:41:48;;;;;;;3.93;1.27;;;;;;;11.67;61.46;95988.81;3545253;40;20464;-74
2021/05/21 07:44:16;;;;;;;3.00;1.07;;;;;;;11.61;61.00;95999.81;3543093;40;20537;-73
2021/05/21 07:46:44;;;;;;;4.87;1.10;;;;;;;11.71;60.65;95994.63;3541734;40;20796;-74
2021/05/21 07:49:11;;;;;;;2.10;0.80;;;;;;;11.73;61.08;95987.47;3544871;40;20456;-74
2021/05/21 07:51:40;;;;;;;1.23;0.77;;;;;;;11.75;60.82;96001.28;3543007;40;20466;-73
2021/05/21 07:54:08;;;;;;;1.30;0.90;;;;;;;11.91;60.36;95998.25;3542603;40;20459;-73
2021/05/21 07:56:35;;;;;;;1.73;0.80;;;;;;;11.79;61.27;95989.59;3542141;40;20791;-72
2021/05/21 07:59:03;;;;;;;8.47;0.80;;;;;;;11.80;60.20;95992.09;3543892;40;20846;-72
2021/05/21 08:01:31;;;;;;;4.63;1.00;;;;;;;11.88;61.16;95987.03;3536842;40;20459;-73
2021/05/21 08:03:58;;;;;;;2.17;0.80;;;;;;;11.78;60.77;95978.25;3548585;40;20744;-76
2021/05/21 08:06:26;;;;;;;11.80;0.80;;;;;;;11.77;61.34;95976.59;3548103;40;20492;-73
2021/05/21 08:08:53;;;;;;;3.53;0.70;;;;;;;11.81;60.46;95966.66;3550842;40;20471;-73
2021/05/21 08:11:21;;;;;;;1.90;0.97;;;;;;;11.84;60.57;95961.19;3543216;40;20467;-75
2021/05/21 08:13:49;;;;;;;0.97;0.60;;;;;;;11.84;59.61;95948.06;3551047;40;20724;-72
2021/05/21 08:16:17;;;;;;;2.90;1.40;;;;;;;12.02;59.44;95959.66;3548256;40;20459;-75
2021/05/21 08:18:44;;;;;;;7.83;1.30;;;;;;;12.07;58.66;95964.50;3547394;40;20695;-74
2021/05/21 08:21:12;;;;;;;5.03;0.87;;;;;;;12.09;59.22;95961.75;3550894;40;20828;-73
2021/05/21 08:23:40;;;;;;;3.00;0.90;;;;;;;12.09;59.75;95951.25;3545833;40;20441;-74
2021/05/21 08:26:07;;;;;;;1.40;0.90;;;;;;;12.15;59.19;95950.72;3548905;40;20713;-73
2021/05/21 08:28:35;;;;;;;7.93;1.00;;;;;;;12.24;57.89;95960.44;3548923;40;20472;-73
2021/05/21 08:31:04;;;;;;;1.40;0.70;;;;;;;12.30;58.24;95944.16;3550061;40;21441;-75
2021/05/21 08:33:32;;;;;;;1.27;0.80;;;;;;;12.34;58.38;95952.63;3540990;40;20733;-71
2021/05/21 08:35:59;;;;;;;1.30;0.90;;;;;;;12.35;57.25;95955.13;3549768;40;20460;-72
2021/05/21 08:38:27;;;;;;;3.80;0.80;;;;;;;12.40;57.77;95959.97;3546866;40;20440;-80
2021/05/21 08:40:55;;;;;;;4.43;0.70;;;;;;;12.34;57.81;95961.31;3551526;40;20557;-74
2021/05/21 08:43:24;;;;;;;2.40;0.93;;;;;;;12.30;57.81;95933.66;3544352;40;20806;-73
2021/05/21 08:45:53;;;;;;;1.60;0.87;;;;;;;12.45;57.57;95953.34;3546814;40;20456;-76
2021/05/21 08:48:20;;;;;;;2.80;0.80;;;;;;;12.51;56.95;95951.16;3548043;40;20458;-75
2021/05/21 08:50:52;;;;;;;1.67;1.00;;;;;;;12.53;56.76;95951.88;3551134;40;20494;-74
2021/05/21 08:53:19;;;;;;;1.00;0.77;;;;;;;12.63;56.16;95955.34;3547748;40;20464;-75
2021/05/21 08:55:47;;;;;;;3.60;0.90;;;;;;;12.72;56.14;95961.59;3545937;40;20554;-74
2021/05/21 08:58:15;;;;;;;8.43;1.10;;;;;;;12.73;55.69;95965.88;3551200;40;20467;-76
2021/05/21 09:00:42;;;;;;;6.40;1.00;;;;;;;12.73;56.01;95958.81;3547815;40;20777;-75
2021/05/21 09:03:21;;;;;;;1.57;0.73;;;;;;;12.87;54.73;95965.50;3546141;40;20927;-72
2021/05/21 09:06:12;;;;;;;9.90;1.27;;;;;;;12.89;55.73;95960.13;3544223;40;20533;-72
2021/05/21 09:08:43;;;;;;;6.77;0.87;;;;;;;13.04;53.34;95953.50;3551820;40;20477;-74
2021/05/21 09:11:32;;;;;;;2.23;0.73;;;;;;;13.13;53.16;95968.47;3544309;40;20883;-71
2021/05/21 09:14:03;;;;;;;4.70;0.80;;;;;;;13.21;51.00;95949.34;3545973;40;20582;-73
2021/05/21 09:16:32;;;;;;;1.53;0.70;;;;;;;13.25;50.97;95940.25;3546854;40;20458;-73
2021/05/21 09:19:08;;;;;;;1.13;0.60;;;;;;;13.29;51.64;95939.00;3546581;40;20457;-73
2021/05/21 09:21:47;;;;;;;2.37;0.80;;;;;;;13.21;52.15;95934.44;3545615;40;20797;-73
2021/05/21 09:24:15;;;;;;;2.13;0.60;;;;;;;13.21;52.32;95934.44;3547343;40;20735;-75
2021/05/21 09:26:44;;;;;;;8.90;0.70;;;;;;;13.20;53.14;95926.69;3542483;40;20881;-73
2021/05/21 09:29:14;;;;;;;3.17;0.93;;;;;;;13.17;53.49;95924.31;3545843;40;20908;-73
2021/05/21 09:31:43;;;;;;;6.00;0.80;;;;;;;13.15;54.45;95940.25;3546931;40;20481;-73
2021/05/21 09:34:13;;;;;;;8.83;0.80;;;;;;;13.09;54.42;95938.13;3552457;40;20773;-74
2021/05/21 09:36:42;;;;;;;2.40;0.80;;;;;;;13.08;54.33;95947.00;3547825;40;20473;-72
2021/05/21 09:39:12;;;;;;;1.00;0.70;;;;;;;13.08;55.26;95956.69;3545324;40;20468;-73
2021/05/21 09:41:53;;;;;;;1.20;0.80;;;;;;;12.95;56.22;95964.81;3544554;40;20554;-73
2021/05/21 09:44:23;;;;;;;1.20;0.63;;;;;;;12.85;56.76;95975.31;3544232;40;20848;-72
2021/05/21 09:46:51;;;;;;;1.27;0.60;;;;;;;12.81;57.49;95985.25;3545669;40;20932;-74
2021/05/21 09:49:27;;;;;;;1.17;0.83;;;;;;;12.71;57.56;95973.91;3544872;40;20469;-77
2021/05/21 09:51:55;;;;;;;10.37;2.93;;;;;;;12.55;58.46;95966.53;3545347;40;20486;-79
2021/05/21 09:54:23;;;;;;;3.30;0.90;;;;;;;12.62;58.57;95985.19;3546828;40;20459;-75
2021/05/21 09:57:02;;;;;;;1.47;0.70;;;;;;;12.46;58.90;95980.44;3542290;40;20562;-78
2021/05/21 09:59:40;;;;;;;0.87;0.60;;;;;;;12.44;59.75;95991.06;3535867;40;20475;-76
2021/05/21 10:02:25;;;;;;;2.70;0.70;;;;;;;12.44;60.11;95998.94;3551083;40;20490;-74
2021/05/21 10:04:55;;;;;;;2.30;0.80;;;;;;;12.40;60.78;96002.78;3549271;40;20715;-76
2021/05/21 10:07:23;;;;;;;3.63;1.00;;;;;;;12.38;60.60;96014.41;3543276;40;20481;-76
2021/05/21 10:09:51;;;;;;;2.90;0.80;;;;;;;12.44;61.10;96004.19;3544562;40;20448;-76
2021/05/21 10:12:20;;;;;;;3.63;1.03;;;;;;;12.32;61.13;96012.31;3550515;40;20457;-77
2021/05/21 10:14:53;;;;;;;1.73;0.70;;;;;;;12.25;61.86;96004.09;3537298;40;20712;-78
2021/05/21 10:17:24;;;;;;;7.53;0.70;;;;;;;12.25;61.95;96010.22;3544988;40;20548;-75
2021/05/21 10:19:54;;;;;;;2.03;0.77;;;;;;;12.28;61.23;96014.34;3547061;40;20923;-73
2021/05/21 10:22:26;;;;;;;5.00;0.83;;;;;;;12.26;61.96;96018.91;3550506;40;20455;-76
2021/05/21 10:24:58;;;;;;;2.27;0.90;;;;;;;12.37;62.18;96016.22;3544914;40;20485;-75
2021/05/21 10:27:31;;;;;;;1.00;0.67;;;;;;;12.49;61.78;96016.94;3545754;40;20599;-75
2021/05/21 10:30:02;;;;;;;1.73;0.80;;;;;;;12.43;60.94;96015.69;3542101;40;20558;-76
2021/05/21 10:32:35;;;;;;;3.13;0.73;;;;;;;12.36;61.07;96014.53;3535209;40;20790;-77
2021/05/21 10:35:15;;;;;;;3.43;0.90;;;;;;;12.39;61.32;96016.09;3547821;40;20437;-77
2021/05/21 10:37:45;;;;;;;1.30;0.73;;;;;;;12.56;61.24;96027.75;3538155;40;20452;-75
2021/05/21 10:40:21;;;;;;;2.37;1.00;;;;;;;12.60;60.79;96029.16;3546397;40;20511;-77
2021/05/21 10:42:51;;;;;;;1.57;0.70;;;;;;;12.53;61.24;96034.09;3544926;40;20476;-78
2021/05/21 10:45:21;;;;;;;3.07;0.70;;;;;;;12.49;61.55;96022.19;3546357;40;20948;-75
2021/05/21 10:47:58;;;;;;;1.27;0.60;;;;;;;12.58;61.60;96042.41;3545248;40;20464;-76
2021/05/21 10:50:33;;;;;;;2.33;0.80;;;;;;;12.59;62.27;96041.47;3545011;40;20529;-75
2021/05/21 10:53:04;;;;;;;3.73;0.90;;;;;;;12.60;61.90;96029.16;3538851;40;20511;-76
2021/05/21 10:55:40;;;;;;;1.47;0.70;;;;;;;12.48;62.49;96024.94;3536852;40;20577;-76
2021/05/21 10:58:08;;;;;;;0.90;0.70;;;;;;;12.62;63.08;96019.34;3542976;40;20437;-75
2021/05/21 11:00:39;;;;;;;3.93;0.80;;;;;;;12.79;62.40;96034.47;3542946;40;20456;-77
2021/05/21 11:03:06;;;;;;;1.87;0.77;;;;;;;12.84;62.52;96042.81;3548484;40;20481;-75
2021/05/21 11:05:36;;;;;;;1.87;0.80;;;;;;;12.77;62.12;96038.22;3548208;40;20475;-75
2021/05/21 11:08:06;;;;;;;0.83;0.70;;;;;;;12.84;62.03;96042.81;3549735;40;20751;-76
2021/05/21 11:10:42;;;;;;;1.00;0.63;;;;;;;12.84;62.65;96034.09;3545804;40;20926;-75
2021/05/21 11:13:12;;;;;;;0.80;0.60;;;;;;;12.79;61.85;96039.72;3540937;40;20716;-76
2021/05/21 11:15:41;;;;;;;1.90;0.60;;;;;;;12.73;61.86;96035.00;3544032;40;20464;-75
2021/05/21 11:18:22;;;;;;;2.80;0.83;;;;;;;12.89;61.86;96026.63;3542172;40;20458;-74
2021/05/21 11:20:55;;;;;;;1.00;0.70;;;;;;;13.05;60.72;96029.59;3542966;40;20552;-74
2021/05/21 11:23:26;;;;;;;3.60;1.00;;;;;;;13.16;60.00;96033.91;3550843;40;20448;-76
2021/05/21 11:26:02;;;;;;;2.03;0.60;;;;;;;13.07;59.41;96011.03;3549759;40;20448;-73
2021/05/21 11:28:30;;;;;;;1.17;0.70;;;;;;;13.25;57.72;96013.88;3540427;40;20468;-73
2021/05/21 11:30:57;;;;;;;3.20;0.90;;;;;;;13.37;57.27;96027.75;3540569;40;20773;-77
2021/05/21 11:33:25;;;;;;;3.10;0.70;;;;;;;13.49;56.74;96031.91;3546004;40;20454;-78
2021/05/21 11:35:54;;;;;;;2.03;0.80;;;;;;;13.56;57.41;96030.38;3543916;40;20829;-78
2021/05/21 11:38:26;;;;;;;1.97;0.80;;;;;;;13.53;56.32;96022.78;3550038;40;20462;-76
2021/05/21 11:40:54;;;;;;;5.13;0.77;;;;;;;13.57;56.55;96034.69;3547140;40;20721;-76
2021/05/21 11:43:24;;;;;;;2.93;0.70;;;;;;;13.67;56.59;96032.06;3548585;40;20525;-73
2021/05/21 11:45:53;;;;;;;1.50;0.83;;;;;;;13.80;56.04;96029.97;3546660;40;20448;-75